Latest  Newer  Older  Last 2 hours slideshow  Last 24 hours slideshow  Refresh every 5 minutes 
Current image  Latest image  Rain/snow radar  Cloud coverage sat images 

All time is UTC (add 2 hours to UTC in wintertime, 3 hours to UTC in DST for Latvia local time)

2020/09/30 00:20 EVRA 300020Z 34001KT 0550 0300 R36/0325N FG NSC 07/07 Q1019 NOSIG
2020/09/30 00:20 EVLA 300020Z AUTO 08002KT 2100 FG NCD 07/07 Q1018
2020/09/30 00:20 EVVA 300020Z AUTO 36001KT 0250 FG NSC 05/05 Q1019
2020/09/30 00:20 EYKA 300020Z AUTO 01005KT 9999 NCD 09/07 Q1016
2020/09/30 00:20 EYPA 300020Z AUTO 07006KT 9999 NCD 09/08 Q1018
2020/09/30 00:20 EYSA 300020Z AUTO 36003KT 9000NDV BR NCD 07/06 Q1018
2020/09/30 00:20 EYVI 300020Z 04009KT 9999 SCT049 BKN099 09/08 Q1015 NOSIG
2020/09/29 15:20 EEKA 291520Z 35007KT 9999 FEW017 15/12 Q1019
2020/09/30 00:20 EEKE 300020Z AUTO 36004KT 0300NDV R17/0450N R35/0450N FG VV002 08/08 Q1020
2020/09/29 13:20 EEPU 291320Z 21002KT 9999 OVC023 15/15 Q1019
2020/09/30 00:20 EETN 300020Z 12003KT 9999 OVC004 13/12 Q1020
2020/09/30 00:20 EETU 300020Z AUTO 00000KT 2600 BR OVC002/// 13/12 Q1019
   RIGA AIRPORT     EVRA               56 55N  023 58E   10   X     T          6 LV
   LIEPAJA INTL     EVLA        26406  56 31N  021 06E    4   X                8 LV
   VENTPILS         EVVA               57 21N  021 33E    6   X                8 LV
   KAUNAS           EYKA               54 54N  023 55E   77   X     T          6 LT
   PALANGA INTL     EYPA               55 55N  021 03E   10   X                6 LT
   SIAULIAI INTL    EYSA               55 54N  023 24E  135   X     T          6 LT
   VILNIUS INTL     EYVI        26730  54 38N  025 17E  197   X     T          6 LT
   KARDLA           EEKA        26116  58 59N  022 50E    4   X                8 EE
   KURESSAARE       EEKE               58 14N  022 31E    4   X                8 EE
   PARNU            EEPU               58 25N  024 28E   14   X                8 EE
   TALLINN          EETN        26038  59 24N  024 49E   40   X     T          8 EE
   TARTU            EETU               58 19N  026 41E   67   X                8 EE